sensor_id;sensor_type;location;lat;lon;timestamp;pressure;altitude;pressure_sealevel;temperature;humidity
17711;BME280;8975;57.718;12.134;2022-12-18T00:01:34;115940.22;;;-142.68;89.30
17711;BME280;8975;57.718;12.134;2022-12-18T00:04:02;115940.22;;;-142.68;90.34
17711;BME280;8975;57.718;12.134;2022-12-18T00:06:28;115940.22;;;-142.68;88.63
17711;BME280;8975;57.718;12.134;2022-12-18T00:08:56;115940.22;;;-142.68;88.94
17711;BME280;8975;57.718;12.134;2022-12-18T00:11:24;115940.22;;;-142.68;89.22
17711;BME280;8975;57.718;12.134;2022-12-18T00:13:50;115940.22;;;-142.68;89.17
17711;BME280;8975;57.718;12.134;2022-12-18T00:16:21;115940.22;;;-142.68;88.65
17711;BME280;8975;57.718;12.134;2022-12-18T00:18:48;115940.22;;;-142.68;88.48
17711;BME280;8975;57.718;12.134;2022-12-18T00:21:14;115940.22;;;-142.68;88.51
17711;BME280;8975;57.718;12.134;2022-12-18T00:23:42;115940.22;;;-142.68;89.31
17711;BME280;8975;57.718;12.134;2022-12-18T00:26:14;115940.22;;;-142.68;88.28
17711;BME280;8975;57.718;12.134;2022-12-18T00:28:40;115940.22;;;-142.68;88.17
17711;BME280;8975;57.718;12.134;2022-12-18T00:31:08;115940.22;;;-142.68;88.29
17711;BME280;8975;57.718;12.134;2022-12-18T00:33:35;115940.22;;;-142.68;88.45
17711;BME280;8975;57.718;12.134;2022-12-18T00:38:29;115940.22;;;-142.68;88.89
17711;BME280;8975;57.718;12.134;2022-12-18T00:40:55;115940.22;;;-142.68;88.13
17711;BME280;8975;57.718;12.134;2022-12-18T00:43:20;115940.22;;;-142.68;88.64
17711;BME280;8975;57.718;12.134;2022-12-18T00:45:46;115940.22;;;-142.68;88.45
17711;BME280;8975;57.718;12.134;2022-12-18T00:48:11;115940.22;;;-142.68;87.31
17711;BME280;8975;57.718;12.134;2022-12-18T00:50:37;115940.22;;;-142.68;88.58
17711;BME280;8975;57.718;12.134;2022-12-18T00:53:02;115940.22;;;-142.68;88.25
17711;BME280;8975;57.718;12.134;2022-12-18T00:55:27;115940.22;;;-142.68;88.25
17711;BME280;8975;57.718;12.134;2022-12-18T00:57:53;115940.22;;;-142.68;87.79
17711;BME280;8975;57.718;12.134;2022-12-18T01:00:18;115940.22;;;-142.68;87.52
17711;BME280;8975;57.718;12.134;2022-12-18T01:02:44;115940.22;;;-142.68;87.42
17711;BME280;8975;57.718;12.134;2022-12-18T01:05:11;115940.22;;;-142.68;87.44
17711;BME280;8975;57.718;12.134;2022-12-18T01:07:37;115940.22;;;-142.68;87.41
17711;BME280;8975;57.718;12.134;2022-12-18T01:10:03;115940.22;;;-142.68;87.42
17711;BME280;8975;57.718;12.134;2022-12-18T01:12:29;115940.22;;;-142.68;87.38
17711;BME280;8975;57.718;12.134;2022-12-18T01:14:54;115940.22;;;-142.68;87.92
17711;BME280;8975;57.718;12.134;2022-12-18T01:17:20;115940.22;;;-142.68;87.07
17711;BME280;8975;57.718;12.134;2022-12-18T01:19:45;115940.22;;;-142.68;87.36
17711;BME280;8975;57.718;12.134;2022-12-18T01:22:11;115940.22;;;-142.68;87.10
17711;BME280;8975;57.718;12.134;2022-12-18T01:24:36;115940.22;;;-142.68;87.05
17711;BME280;8975;57.718;12.134;2022-12-18T01:27:02;115940.22;;;-142.68;88.31
17711;BME280;8975;57.718;12.134;2022-12-18T01:29:27;115940.22;;;-142.68;87.35
17711;BME280;8975;57.718;12.134;2022-12-18T01:31:55;115940.22;;;-142.68;87.69
17711;BME280;8975;57.718;12.134;2022-12-18T01:34:21;115940.22;;;-142.68;87.75
17711;BME280;8975;57.718;12.134;2022-12-18T01:36:46;115940.22;;;-142.68;87.42
17711;BME280;8975;57.718;12.134;2022-12-18T01:39:13;115940.22;;;-142.68;88.24
17711;BME280;8975;57.718;12.134;2022-12-18T01:41:40;115940.22;;;-142.68;87.17
17711;BME280;8975;57.718;12.134;2022-12-18T01:50:19;115940.22;;;-142.68;86.53
17711;BME280;8975;57.718;12.134;2022-12-18T01:53:10;115940.22;;;-142.68;87.68
17711;BME280;8975;57.718;12.134;2022-12-18T01:55:50;115940.22;;;-142.68;87.54
17711;BME280;8975;57.718;12.134;2022-12-18T01:58:18;115940.22;;;-142.68;86.76
17711;BME280;8975;57.718;12.134;2022-12-18T02:00:44;115940.22;;;-142.68;86.85
17711;BME280;8975;57.718;12.134;2022-12-18T02:03:09;115940.22;;;-142.68;87.74
17711;BME280;8975;57.718;12.134;2022-12-18T02:06:04;115940.22;;;-142.68;87.59
17711;BME280;8975;57.718;12.134;2022-12-18T02:08:39;115940.22;;;-142.68;87.93
17711;BME280;8975;57.718;12.134;2022-12-18T02:19:00;115940.22;;;-142.68;85.74
17711;BME280;8975;57.718;12.134;2022-12-18T02:22:39;115940.22;;;-142.68;86.72
17711;BME280;8975;57.718;12.134;2022-12-18T02:24:59;115940.22;;;-142.68;87.08
17711;BME280;8975;57.718;12.134;2022-12-18T02:27:26;115940.22;;;-142.68;86.79
17711;BME280;8975;57.718;12.134;2022-12-18T02:29:55;115940.22;;;-142.68;85.63
17711;BME280;8975;57.718;12.134;2022-12-18T02:32:34;115940.22;;;-142.68;86.02
17711;BME280;8975;57.718;12.134;2022-12-18T02:35:04;115940.22;;;-142.68;87.49
17711;BME280;8975;57.718;12.134;2022-12-18T02:37:32;115940.22;;;-142.68;87.36
17711;BME280;8975;57.718;12.134;2022-12-18T02:39:59;115940.22;;;-142.68;87.68
17711;BME280;8975;57.718;12.134;2022-12-18T02:42:26;115940.22;;;-142.68;87.08
17711;BME280;8975;57.718;12.134;2022-12-18T02:44:52;115940.22;;;-142.68;87.16
17711;BME280;8975;57.718;12.134;2022-12-18T02:47:21;115940.22;;;-142.68;86.73
17711;BME280;8975;57.718;12.134;2022-12-18T02:49:57;115940.22;;;-142.68;87.76
17711;BME280;8975;57.718;12.134;2022-12-18T02:57:55;115940.22;;;-142.68;87.73
17711;BME280;8975;57.718;12.134;2022-12-18T03:00:25;115940.22;;;-142.68;87.82
17711;BME280;8975;57.718;12.134;2022-12-18T03:03:21;115940.22;;;-142.68;87.27
17711;BME280;8975;57.718;12.134;2022-12-18T03:05:57;115940.22;;;-142.68;87.42
17711;BME280;8975;57.718;12.134;2022-12-18T03:08:27;115940.22;;;-142.68;86.76
17711;BME280;8975;57.718;12.134;2022-12-18T03:11:06;115940.22;;;-142.68;86.47
17711;BME280;8975;57.718;12.134;2022-12-18T03:13:43;115940.22;;;-142.68;87.13
17711;BME280;8975;57.718;12.134;2022-12-18T03:16:13;115940.22;;;-142.68;87.98
17711;BME280;8975;57.718;12.134;2022-12-18T03:18:48;115940.22;;;-142.68;87.75
17711;BME280;8975;57.718;12.134;2022-12-18T03:21:17;115940.22;;;-142.68;87.69
17711;BME280;8975;57.718;12.134;2022-12-18T03:23:48;115940.22;;;-142.68;87.28
17711;BME280;8975;57.718;12.134;2022-12-18T03:26:22;115940.22;;;-142.68;87.52
17711;BME280;8975;57.718;12.134;2022-12-18T03:28:53;115940.22;;;-142.68;87.85
17711;BME280;8975;57.718;12.134;2022-12-18T03:31:22;115940.22;;;-142.68;87.68
17711;BME280;8975;57.718;12.134;2022-12-18T03:33:53;115940.22;;;-142.68;86.73
17711;BME280;8975;57.718;12.134;2022-12-18T03:36:19;115940.22;;;-142.68;87.27
17711;BME280;8975;57.718;12.134;2022-12-18T03:38:44;115940.22;;;-142.68;87.04
17711;BME280;8975;57.718;12.134;2022-12-18T03:46:29;115940.22;;;-142.68;87.43
17711;BME280;8975;57.718;12.134;2022-12-18T03:49:01;115940.22;;;-142.68;87.83
17711;BME280;8975;57.718;12.134;2022-12-18T03:51:43;115940.22;;;-142.68;88.58
17711;BME280;8975;57.718;12.134;2022-12-18T03:54:11;115940.22;;;-142.68;88.70
17711;BME280;8975;57.718;12.134;2022-12-18T03:56:45;115940.22;;;-142.68;90.34
17711;BME280;8975;57.718;12.134;2022-12-18T03:59:13;115940.22;;;-142.68;89.67
17711;BME280;8975;57.718;12.134;2022-12-18T04:01:45;115940.22;;;-142.68;89.61
17711;BME280;8975;57.718;12.134;2022-12-18T04:04:12;115940.22;;;-142.68;89.51
17711;BME280;8975;57.718;12.134;2022-12-18T04:06:39;115940.22;;;-142.68;89.76
17711;BME280;8975;57.718;12.134;2022-12-18T04:09:06;115940.22;;;-142.68;90.59
17711;BME280;8975;57.718;12.134;2022-12-18T04:11:32;115940.22;;;-142.68;89.44
17711;BME280;8975;57.718;12.134;2022-12-18T04:13:57;115940.22;;;-142.68;88.72
17711;BME280;8975;57.718;12.134;2022-12-18T04:16:24;115940.22;;;-142.68;88.67
17711;BME280;8975;57.718;12.134;2022-12-18T04:18:49;115940.22;;;-142.68;88.21
17711;BME280;8975;57.718;12.134;2022-12-18T04:21:15;115940.22;;;-142.68;88.46
17711;BME280;8975;57.718;12.134;2022-12-18T04:23:41;115940.22;;;-142.68;88.42
17711;BME280;8975;57.718;12.134;2022-12-18T04:26:06;115940.22;;;-142.68;89.13
17711;BME280;8975;57.718;12.134;2022-12-18T04:28:31;115940.22;;;-142.68;89.36
17711;BME280;8975;57.718;12.134;2022-12-18T04:30:57;115940.22;;;-142.68;89.81
17711;BME280;8975;57.718;12.134;2022-12-18T04:33:22;115940.22;;;-142.68;89.40
17711;BME280;8975;57.718;12.134;2022-12-18T04:35:48;115940.22;;;-142.68;88.86
17711;BME280;8975;57.718;12.134;2022-12-18T04:38:13;115940.22;;;-142.68;89.23
17711;BME280;8975;57.718;12.134;2022-12-18T04:40:38;115940.22;;;-142.68;88.92
17711;BME280;8975;57.718;12.134;2022-12-18T04:43:04;115940.22;;;-142.68;90.16
17711;BME280;8975;57.718;12.134;2022-12-18T04:45:30;115940.22;;;-142.68;90.50
17711;BME280;8975;57.718;12.134;2022-12-18T04:48:00;115940.22;;;-142.68;89.02
17711;BME280;8975;57.718;12.134;2022-12-18T04:50:25;115940.22;;;-142.68;89.60
17711;BME280;8975;57.718;12.134;2022-12-18T04:52:50;115940.22;;;-142.68;89.00
17711;BME280;8975;57.718;12.134;2022-12-18T04:55:16;115940.22;;;-142.68;89.96
17711;BME280;8975;57.718;12.134;2022-12-18T04:57:41;115940.22;;;-142.68;89.61
17711;BME280;8975;57.718;12.134;2022-12-18T05:00:07;115940.22;;;-142.68;90.32
17711;BME280;8975;57.718;12.134;2022-12-18T05:02:33;115940.22;;;-142.68;90.34
17711;BME280;8975;57.718;12.134;2022-12-18T05:04:58;115940.22;;;-142.68;90.37
17711;BME280;8975;57.718;12.134;2022-12-18T05:07:23;115940.22;;;-142.68;90.34
17711;BME280;8975;57.718;12.134;2022-12-18T05:09:49;115940.22;;;-142.68;90.20
17711;BME280;8975;57.718;12.134;2022-12-18T05:12:14;115940.22;;;-142.68;89.62
17711;BME280;8975;57.718;12.134;2022-12-18T05:14:40;115940.22;;;-142.68;90.89
17711;BME280;8975;57.718;12.134;2022-12-18T05:17:05;115940.22;;;-142.68;89.51
17711;BME280;8975;57.718;12.134;2022-12-18T05:19:30;115940.22;;;-142.68;90.34
17711;BME280;8975;57.718;12.134;2022-12-18T05:21:56;115940.22;;;-142.68;90.18
17711;BME280;8975;57.718;12.134;2022-12-18T05:24:21;115940.22;;;-142.68;89.78
17711;BME280;8975;57.718;12.134;2022-12-18T05:26:47;115940.22;;;-142.68;90.54
17711;BME280;8975;57.718;12.134;2022-12-18T05:29:12;115940.22;;;-142.68;90.79
17711;BME280;8975;57.718;12.134;2022-12-18T05:31:38;115940.22;;;-142.68;90.00
17711;BME280;8975;57.718;12.134;2022-12-18T05:34:04;115940.22;;;-142.68;89.38
17711;BME280;8975;57.718;12.134;2022-12-18T05:36:30;115940.22;;;-142.68;90.60
17711;BME280;8975;57.718;12.134;2022-12-18T05:38:55;115940.22;;;-142.68;90.59
17711;BME280;8975;57.718;12.134;2022-12-18T05:41:21;115940.22;;;-142.68;90.04
17711;BME280;8975;57.718;12.134;2022-12-18T05:43:46;115940.22;;;-142.68;90.04
17711;BME280;8975;57.718;12.134;2022-12-18T05:46:13;115940.22;;;-142.68;89.97
17711;BME280;8975;57.718;12.134;2022-12-18T05:48:40;115940.22;;;-142.68;89.44
17711;BME280;8975;57.718;12.134;2022-12-18T05:51:08;115940.22;;;-142.68;89.27
17711;BME280;8975;57.718;12.134;2022-12-18T05:53:35;115940.22;;;-142.68;89.03
17711;BME280;8975;57.718;12.134;2022-12-18T05:56:04;115940.22;;;-142.68;90.57
17711;BME280;8975;57.718;12.134;2022-12-18T05:58:30;115940.22;;;-142.68;89.24
17711;BME280;8975;57.718;12.134;2022-12-18T06:00:57;115940.22;;;-142.68;90.04
17711;BME280;8975;57.718;12.134;2022-12-18T06:03:22;115940.22;;;-142.68;90.74
17711;BME280;8975;57.718;12.134;2022-12-18T06:05:48;115940.22;;;-142.68;89.81
17711;BME280;8975;57.718;12.134;2022-12-18T06:08:13;115940.22;;;-142.68;89.26
17711;BME280;8975;57.718;12.134;2022-12-18T06:10:39;115940.22;;;-142.68;90.92
17711;BME280;8975;57.718;12.134;2022-12-18T06:13:05;115940.22;;;-142.68;90.26
17711;BME280;8975;57.718;12.134;2022-12-18T06:15:31;115940.22;;;-142.68;90.03
17711;BME280;8975;57.718;12.134;2022-12-18T06:17:57;115940.22;;;-142.68;89.54
17711;BME280;8975;57.718;12.134;2022-12-18T06:20:22;115940.22;;;-142.68;89.63
17711;BME280;8975;57.718;12.134;2022-12-18T06:22:48;115940.22;;;-142.68;89.48
17711;BME280;8975;57.718;12.134;2022-12-18T06:25:13;115940.22;;;-142.68;90.48
17711;BME280;8975;57.718;12.134;2022-12-18T06:27:39;115940.22;;;-142.68;90.18
17711;BME280;8975;57.718;12.134;2022-12-18T06:30:05;115940.22;;;-142.68;89.73
17711;BME280;8975;57.718;12.134;2022-12-18T06:32:31;115940.22;;;-142.68;89.24
17711;BME280;8975;57.718;12.134;2022-12-18T06:34:56;115940.22;;;-142.68;89.13
17711;BME280;8975;57.718;12.134;2022-12-18T06:37:22;115940.22;;;-142.68;89.71
17711;BME280;8975;57.718;12.134;2022-12-18T06:39:52;115940.22;;;-142.68;89.96
17711;BME280;8975;57.718;12.134;2022-12-18T06:42:17;115940.22;;;-142.68;89.90
17711;BME280;8975;57.718;12.134;2022-12-18T06:44:42;115940.22;;;-142.68;90.17
17711;BME280;8975;57.718;12.134;2022-12-18T06:47:08;115940.22;;;-142.68;91.39
17711;BME280;8975;57.718;12.134;2022-12-18T06:49:33;115940.22;;;-142.68;90.72
17711;BME280;8975;57.718;12.134;2022-12-18T06:51:58;115940.22;;;-142.68;90.29
17711;BME280;8975;57.718;12.134;2022-12-18T06:54:24;115940.22;;;-142.68;90.30
17711;BME280;8975;57.718;12.134;2022-12-18T06:56:49;115940.22;;;-142.68;89.76
17711;BME280;8975;57.718;12.134;2022-12-18T06:59:15;115940.22;;;-142.68;90.28
17711;BME280;8975;57.718;12.134;2022-12-18T07:01:40;115940.22;;;-142.68;89.44
17711;BME280;8975;57.718;12.134;2022-12-18T07:04:05;115940.22;;;-142.68;91.30
17711;BME280;8975;57.718;12.134;2022-12-18T07:06:31;115940.22;;;-142.68;90.70
17711;BME280;8975;57.718;12.134;2022-12-18T07:08:56;115940.22;;;-142.68;90.83
17711;BME280;8975;57.718;12.134;2022-12-18T07:11:22;115940.22;;;-142.68;92.10
17711;BME280;8975;57.718;12.134;2022-12-18T07:13:47;115940.22;;;-142.68;90.72
17711;BME280;8975;57.718;12.134;2022-12-18T07:16:17;115940.22;;;-142.68;90.51
17711;BME280;8975;57.718;12.134;2022-12-18T07:18:43;115940.22;;;-142.68;90.51
17711;BME280;8975;57.718;12.134;2022-12-18T07:21:11;115940.22;;;-142.68;91.05
17711;BME280;8975;57.718;12.134;2022-12-18T07:23:37;115940.22;;;-142.68;91.75
17711;BME280;8975;57.718;12.134;2022-12-18T07:26:08;115940.22;;;-142.68;90.70
17711;BME280;8975;57.718;12.134;2022-12-18T07:28:34;115940.22;;;-142.68;90.40
17711;BME280;8975;57.718;12.134;2022-12-18T07:31:09;115940.22;;;-142.68;89.96
17711;BME280;8975;57.718;12.134;2022-12-18T07:33:35;115940.22;;;-142.68;90.25
17711;BME280;8975;57.718;12.134;2022-12-18T07:36:01;115940.22;;;-142.68;90.07
17711;BME280;8975;57.718;12.134;2022-12-18T07:38:28;115940.22;;;-142.68;89.54
17711;BME280;8975;57.718;12.134;2022-12-18T07:40:53;115940.22;;;-142.68;91.14
17711;BME280;8975;57.718;12.134;2022-12-18T07:43:19;115940.22;;;-142.68;90.90
17711;BME280;8975;57.718;12.134;2022-12-18T07:45:44;115940.22;;;-142.68;90.81
17711;BME280;8975;57.718;12.134;2022-12-18T07:48:10;115940.22;;;-142.68;90.53
17711;BME280;8975;57.718;12.134;2022-12-18T07:50:36;115940.22;;;-142.68;90.68
17711;BME280;8975;57.718;12.134;2022-12-18T07:53:02;115940.22;;;-142.68;89.71
17711;BME280;8975;57.718;12.134;2022-12-18T07:55:31;115940.22;;;-142.68;90.72
17711;BME280;8975;57.718;12.134;2022-12-18T07:57:56;115940.22;;;-142.68;90.42
17711;BME280;8975;57.718;12.134;2022-12-18T08:00:22;115940.22;;;-142.68;90.09
17711;BME280;8975;57.718;12.134;2022-12-18T08:02:47;115940.22;;;-142.68;90.50
17711;BME280;8975;57.718;12.134;2022-12-18T08:05:12;115940.22;;;-142.68;92.06
17711;BME280;8975;57.718;12.134;2022-12-18T08:07:38;115940.22;;;-142.68;90.24
17711;BME280;8975;57.718;12.134;2022-12-18T08:10:05;115940.22;;;-142.68;90.58
17711;BME280;8975;57.718;12.134;2022-12-18T08:12:31;115940.22;;;-142.68;91.17
17711;BME280;8975;57.718;12.134;2022-12-18T08:14:56;115940.22;;;-142.68;91.62
17711;BME280;8975;57.718;12.134;2022-12-18T08:17:21;115940.22;;;-142.68;90.79
17711;BME280;8975;57.718;12.134;2022-12-18T08:19:47;115940.22;;;-142.68;90.56
17711;BME280;8975;57.718;12.134;2022-12-18T08:22:12;115940.22;;;-142.68;90.57
17711;BME280;8975;57.718;12.134;2022-12-18T08:24:37;115940.22;;;-142.68;91.06
17711;BME280;8975;57.718;12.134;2022-12-18T08:27:03;115940.22;;;-142.68;90.30
17711;BME280;8975;57.718;12.134;2022-12-18T08:29:28;115940.22;;;-142.68;91.13
17711;BME280;8975;57.718;12.134;2022-12-18T08:31:55;115940.22;;;-142.68;91.25
17711;BME280;8975;57.718;12.134;2022-12-18T08:34:21;115940.22;;;-142.68;91.06
17711;BME280;8975;57.718;12.134;2022-12-18T08:36:46;115940.22;;;-142.68;89.80
17711;BME280;8975;57.718;12.134;2022-12-18T08:39:11;115940.22;;;-142.68;90.48
17711;BME280;8975;57.718;12.134;2022-12-18T08:41:37;115940.22;;;-142.68;91.18
17711;BME280;8975;57.718;12.134;2022-12-18T08:44:02;115940.22;;;-142.68;90.77
17711;BME280;8975;57.718;12.134;2022-12-18T08:46:46;115940.22;;;-142.68;90.37
17711;BME280;8975;57.718;12.134;2022-12-18T08:49:11;115940.22;;;-142.68;91.58
17711;BME280;8975;57.718;12.134;2022-12-18T08:51:37;115940.22;;;-142.68;90.27
17711;BME280;8975;57.718;12.134;2022-12-18T08:54:04;115940.22;;;-142.68;90.91
17711;BME280;8975;57.718;12.134;2022-12-18T08:56:30;115940.22;;;-142.68;91.57
17711;BME280;8975;57.718;12.134;2022-12-18T08:58:55;115940.22;;;-142.68;91.18
17711;BME280;8975;57.718;12.134;2022-12-18T09:01:21;115940.22;;;-142.68;91.66
17711;BME280;8975;57.718;12.134;2022-12-18T09:03:48;115940.22;;;-142.68;91.17
17711;BME280;8975;57.718;12.134;2022-12-18T09:06:16;115940.22;;;-142.68;91.00
17711;BME280;8975;57.718;12.134;2022-12-18T09:08:43;115940.22;;;-142.68;90.49
17711;BME280;8975;57.718;12.134;2022-12-18T09:11:22;115940.22;;;-142.68;89.96
17711;BME280;8975;57.718;12.134;2022-12-18T09:13:49;115940.22;;;-142.68;90.84
17711;BME280;8975;57.718;12.134;2022-12-18T09:16:15;115940.22;;;-142.68;90.81
17711;BME280;8975;57.718;12.134;2022-12-18T09:18:40;115940.22;;;-142.68;90.06
17711;BME280;8975;57.718;12.134;2022-12-18T09:21:09;115940.22;;;-142.68;90.62
17711;BME280;8975;57.718;12.134;2022-12-18T09:23:34;115940.22;;;-142.68;90.79
17711;BME280;8975;57.718;12.134;2022-12-18T09:26:00;115940.22;;;-142.68;90.51
17711;BME280;8975;57.718;12.134;2022-12-18T09:28:25;115940.22;;;-142.68;89.46
17711;BME280;8975;57.718;12.134;2022-12-18T09:30:51;115940.22;;;-142.68;90.07
17711;BME280;8975;57.718;12.134;2022-12-18T09:33:17;115940.22;;;-142.68;90.76
17711;BME280;8975;57.718;12.134;2022-12-18T09:35:44;115940.22;;;-142.68;91.55
17711;BME280;8975;57.718;12.134;2022-12-18T09:38:17;115940.22;;;-142.68;92.09
17711;BME280;8975;57.718;12.134;2022-12-18T09:40:53;115940.22;;;-142.68;90.51
17711;BME280;8975;57.718;12.134;2022-12-18T09:43:33;115940.22;;;-142.68;90.62
17711;BME280;8975;57.718;12.134;2022-12-18T09:46:07;115940.22;;;-142.68;89.88
17711;BME280;8975;57.718;12.134;2022-12-18T09:48:43;115940.22;;;-142.68;90.83
17711;BME280;8975;57.718;12.134;2022-12-18T09:51:17;115940.22;;;-142.68;89.82
17711;BME280;8975;57.718;12.134;2022-12-18T09:53:51;115940.22;;;-142.68;89.50
17711;BME280;8975;57.718;12.134;2022-12-18T09:56:19;115940.22;;;-142.68;89.02
17711;BME280;8975;57.718;12.134;2022-12-18T09:59:02;115940.22;;;-142.68;90.69
17711;BME280;8975;57.718;12.134;2022-12-18T10:01:29;115940.22;;;-142.68;90.20
17711;BME280;8975;57.718;12.134;2022-12-18T10:03:55;115940.22;;;-142.68;89.41
17711;BME280;8975;57.718;12.134;2022-12-18T10:08:59;115940.22;;;-142.68;91.29
17711;BME280;8975;57.718;12.134;2022-12-18T10:11:32;115940.22;;;-142.68;90.91
17711;BME280;8975;57.718;12.134;2022-12-18T10:14:09;115940.22;;;-142.68;91.05
17711;BME280;8975;57.718;12.134;2022-12-18T10:16:52;115940.22;;;-142.68;89.77
17711;BME280;8975;57.718;12.134;2022-12-18T10:19:38;115940.22;;;-142.68;89.55
17711;BME280;8975;57.718;12.134;2022-12-18T10:27:26;115940.22;;;-142.68;90.36
17711;BME280;8975;57.718;12.134;2022-12-18T10:29:52;115940.22;;;-142.68;91.40
17711;BME280;8975;57.718;12.134;2022-12-18T10:32:27;115940.22;;;-142.68;91.00
17711;BME280;8975;57.718;12.134;2022-12-18T10:34:54;115940.22;;;-142.68;91.74
17711;BME280;8975;57.718;12.134;2022-12-18T10:37:23;115940.22;;;-142.68;89.85
17711;BME280;8975;57.718;12.134;2022-12-18T10:42:33;115940.22;;;-142.68;88.92
17711;BME280;8975;57.718;12.134;2022-12-18T10:45:14;115940.22;;;-142.68;89.49
17711;BME280;8975;57.718;12.134;2022-12-18T10:47:48;115940.22;;;-142.68;89.55
17711;BME280;8975;57.718;12.134;2022-12-18T10:50:31;115940.22;;;-142.68;88.48
17711;BME280;8975;57.718;12.134;2022-12-18T10:53:03;115940.22;;;-142.68;87.82
17711;BME280;8975;57.718;12.134;2022-12-18T10:55:38;115940.22;;;-142.68;90.37
17711;BME280;8975;57.718;12.134;2022-12-18T10:58:21;115940.22;;;-142.68;89.52
17711;BME280;8975;57.718;12.134;2022-12-18T11:01:16;115940.22;;;-142.68;89.34
17711;BME280;8975;57.718;12.134;2022-12-18T11:03:58;115940.22;;;-142.68;89.07
17711;BME280;8975;57.718;12.134;2022-12-18T11:06:25;115940.22;;;-142.68;89.44
17711;BME280;8975;57.718;12.134;2022-12-18T11:08:59;115940.22;;;-142.68;87.93
17711;BME280;8975;57.718;12.134;2022-12-18T11:11:25;115940.22;;;-142.68;88.80
17711;BME280;8975;57.718;12.134;2022-12-18T11:16:19;115940.22;;;-142.68;87.71
17711;BME280;8975;57.718;12.134;2022-12-18T11:18:45;115940.22;;;-142.68;87.77
17711;BME280;8975;57.718;12.134;2022-12-18T11:21:12;115940.22;;;-142.68;87.19
17711;BME280;8975;57.718;12.134;2022-12-18T11:23:53;115940.22;;;-142.68;88.33
17711;BME280;8975;57.718;12.134;2022-12-18T11:26:19;115940.22;;;-142.68;88.48
17711;BME280;8975;57.718;12.134;2022-12-18T11:29:07;115940.22;;;-142.68;87.45
17711;BME280;8975;57.718;12.134;2022-12-18T11:31:33;115940.22;;;-142.68;88.44
17711;BME280;8975;57.718;12.134;2022-12-18T11:34:23;115940.22;;;-142.68;89.24
17711;BME280;8975;57.718;12.134;2022-12-18T11:36:50;115940.22;;;-142.68;89.89
17711;BME280;8975;57.718;12.134;2022-12-18T11:39:24;115940.22;;;-142.68;88.86
17711;BME280;8975;57.718;12.134;2022-12-18T11:42:00;115940.22;;;-142.68;88.61
17711;BME280;8975;57.718;12.134;2022-12-18T11:44:53;115940.22;;;-142.68;89.95
17711;BME280;8975;57.718;12.134;2022-12-18T11:47:39;115940.22;;;-142.68;90.10
17711;BME280;8975;57.718;12.134;2022-12-18T11:50:16;115940.22;;;-142.68;90.07
17711;BME280;8975;57.718;12.134;2022-12-18T11:52:42;115940.22;;;-142.68;88.99
17711;BME280;8975;57.718;12.134;2022-12-18T12:09:17;115940.22;;;-142.68;87.70
17711;BME280;8975;57.718;12.134;2022-12-18T12:14:41;115940.22;;;-142.68;88.34
17711;BME280;8975;57.718;12.134;2022-12-18T12:17:18;115940.22;;;-142.68;88.63
17711;BME280;8975;57.718;12.134;2022-12-18T12:23:02;115940.22;;;-142.68;88.11
17711;BME280;8975;57.718;12.134;2022-12-18T12:25:46;115940.22;;;-142.68;87.69
17711;BME280;8975;57.718;12.134;2022-12-18T12:35:59;115940.22;;;-142.68;88.45
17711;BME280;8975;57.718;12.134;2022-12-18T12:38:56;115940.22;;;-142.68;89.07
17711;BME280;8975;57.718;12.134;2022-12-18T12:41:25;115940.22;;;-142.68;89.71
17711;BME280;8975;57.718;12.134;2022-12-18T12:44:19;115940.22;;;-142.68;90.40
17711;BME280;8975;57.718;12.134;2022-12-18T12:46:47;115940.22;;;-142.68;89.51
17711;BME280;8975;57.718;12.134;2022-12-18T12:49:17;115940.22;;;-142.68;88.20
17711;BME280;8975;57.718;12.134;2022-12-18T12:51:46;115940.22;;;-142.68;89.93
17711;BME280;8975;57.718;12.134;2022-12-18T12:54:21;115940.22;;;-142.68;88.18
17711;BME280;8975;57.718;12.134;2022-12-18T12:56:59;115940.22;;;-142.68;89.13
17711;BME280;8975;57.718;12.134;2022-12-18T13:07:54;115940.22;;;-142.68;90.42
17711;BME280;8975;57.718;12.134;2022-12-18T13:10:26;115940.22;;;-142.68;89.46
17711;BME280;8975;57.718;12.134;2022-12-18T13:20:40;115940.22;;;-142.68;88.47
17711;BME280;8975;57.718;12.134;2022-12-18T13:25:50;115940.22;;;-142.68;88.66
17711;BME280;8975;57.718;12.134;2022-12-18T13:30:57;115940.22;;;-142.68;88.71
17711;BME280;8975;57.718;12.134;2022-12-18T13:36:13;115940.22;;;-142.68;87.26
17711;BME280;8975;57.718;12.134;2022-12-18T13:38:40;115940.22;;;-142.68;87.74
17711;BME280;8975;57.718;12.134;2022-12-18T13:43:48;115940.22;;;-142.68;86.88
17711;BME280;8975;57.718;12.134;2022-12-18T13:46:45;115940.22;;;-142.68;86.81
17711;BME280;8975;57.718;12.134;2022-12-18T13:51:42;115940.22;;;-142.68;86.03
17711;BME280;8975;57.718;12.134;2022-12-18T13:54:40;115940.22;;;-142.68;86.58
17711;BME280;8975;57.718;12.134;2022-12-18T13:57:29;115940.22;;;-142.68;85.72
17711;BME280;8975;57.718;12.134;2022-12-18T13:59:56;115940.22;;;-142.68;85.89
17711;BME280;8975;57.718;12.134;2022-12-18T14:02:27;115940.22;;;-142.68;85.66
17711;BME280;8975;57.718;12.134;2022-12-18T14:04:53;115940.22;;;-142.68;84.95
17711;BME280;8975;57.718;12.134;2022-12-18T14:07:22;115940.22;;;-142.68;85.85
17711;BME280;8975;57.718;12.134;2022-12-18T14:10:01;115940.22;;;-142.68;84.73
17711;BME280;8975;57.718;12.134;2022-12-18T14:12:31;115940.22;;;-142.68;85.30
17711;BME280;8975;57.718;12.134;2022-12-18T14:17:52;115940.22;;;-142.68;85.62
17711;BME280;8975;57.718;12.134;2022-12-18T14:20:18;115940.22;;;-142.68;85.64
17711;BME280;8975;57.718;12.134;2022-12-18T14:22:48;115940.22;;;-142.68;85.29